Terminal Aerodrome Forecast
Issued by NWS

Home | Current Version | Previous Version | Text Only | Print | Product List | Glossary On
Versions: 1 2 3 4 5 6 7 8 9 10 11 12 13 14 15 16
000
FTUS42 KMLB 010520
TAFSUA
TAF
KSUA 010520Z 0106/0206 19005KT P6SM FEW025 SCT040 BKN250
     FM011500 20009KT P6SM VCSH SCT020 BKN120
     FM011800 22010G15KT P6SM VCTS SCT030CB BKN060 BKN150
     FM020000 18003KT P6SM VCSH FEW025 BKN150 BKN250=

USA.gov is the U.S. government's official web portal to all federal, state and local government web resources and services.